Terminal Aerodrome Forecast
Issued by NWS

Home | Current Version | Previous Version | Text Only | Print | Product List | Glossary On
Versions: 1 2 3 4 5 6 7 8 9 10 11 12 13 14 15 16 17 18 19 20 21 22 23 24 25 26
000
FTUS44 KLIX 141725
TAFHDC
TAF
KHDC 141725Z 1418/1518 15013KT P6SM SCT130
     FM142100 15010KT P6SM BKN100
     FM150100 13006KT P6SM BKN070
     FM150700 12005KT P6SM OVC015
     FM150800 12004KT 5SM BR OVC008
     FM151400 18005KT 3SM -SHRA BKN010=

USA.gov is the U.S. government's official web portal to all federal, state and local government web resources and services.